createdAt,value
2023-04-18T00:01:24.952Z,3.43
2023-04-18T00:03:51.769Z,4.47
2023-04-18T00:06:19.369Z,3.77
2023-04-18T00:08:45.932Z,3.80
2023-04-18T00:11:12.391Z,4.10
2023-04-18T00:13:39.372Z,4.10
2023-04-18T00:16:07.685Z,4.10
2023-04-18T00:18:34.311Z,3.70
2023-04-18T00:21:01.785Z,4.30
2023-04-18T00:23:30.127Z,4.13
2023-04-18T00:25:56.752Z,3.70
2023-04-18T00:28:23.191Z,4.20
2023-04-18T00:30:49.703Z,4.60
2023-04-18T00:33:16.651Z,4.80
2023-04-18T00:35:43.903Z,4.00
2023-04-18T00:38:10.438Z,4.40
2023-04-18T00:40:37.773Z,4.93
2023-04-18T00:43:04.292Z,4.53
2023-04-18T00:45:30.907Z,5.20
2023-04-18T00:47:57.716Z,4.87
2023-04-18T00:50:24.556Z,5.83
2023-04-18T00:52:52.085Z,5.10
2023-04-18T00:55:19.612Z,5.27
2023-04-18T00:57:46.422Z,5.43
2023-04-18T01:00:13.192Z,5.70
2023-04-18T01:02:40.622Z,5.17
2023-04-18T01:05:07.892Z,6.33
2023-04-18T01:07:35.857Z,5.37
2023-04-18T01:10:02.426Z,5.80
2023-04-18T01:12:28.952Z,6.53
2023-04-18T01:14:55.487Z,6.00
2023-04-18T01:17:23.317Z,5.00
2023-04-18T01:19:51.187Z,5.60
2023-04-18T01:22:19.495Z,5.43
2023-04-18T01:24:45.986Z,4.90
2023-04-18T01:27:16.005Z,5.70
2023-04-18T01:29:42.467Z,5.80
2023-04-18T01:32:08.922Z,5.60
2023-04-18T01:34:36.590Z,6.30
2023-04-18T01:37:05.625Z,6.53
2023-04-18T01:39:32.778Z,6.00
2023-04-18T01:42:01.325Z,5.80
2023-04-18T01:44:27.796Z,6.80
2023-04-18T01:46:54.392Z,6.10
2023-04-18T01:49:21.188Z,5.60
2023-04-18T01:51:49.878Z,5.93
2023-04-18T01:54:16.701Z,5.47
2023-04-18T01:56:43.599Z,4.70
2023-04-18T01:59:10.133Z,5.73
2023-04-18T02:01:36.647Z,5.73
2023-04-18T02:04:03.215Z,6.67
2023-04-18T02:06:29.785Z,5.80
2023-04-18T02:08:56.334Z,6.53
2023-04-18T02:11:24.898Z,6.20
2023-04-18T02:13:52.022Z,5.50
2023-04-18T02:16:19.031Z,5.20
2023-04-18T02:18:45.752Z,6.30
2023-04-18T02:21:13.498Z,6.00
2023-04-18T02:23:40.286Z,5.03
2023-04-18T02:26:06.769Z,6.40
2023-04-18T02:28:33.738Z,6.10
2023-04-18T02:31:02.957Z,5.27
2023-04-18T02:33:29.879Z,5.83
2023-04-18T02:35:56.863Z,6.10
2023-04-18T02:38:23.457Z,6.17
2023-04-18T02:40:51.876Z,6.20
2023-04-18T02:43:20.221Z,6.77
2023-04-18T02:45:46.783Z,6.67
2023-04-18T02:48:13.718Z,5.87
2023-04-18T02:50:40.329Z,6.40
2023-04-18T02:53:07.326Z,7.57
2023-04-18T02:55:48.126Z,8.07
2023-04-18T02:58:15.588Z,6.67
2023-04-18T03:01:11.390Z,6.10
2023-04-18T03:03:57.745Z,6.43
2023-04-18T03:06:32.251Z,7.90
2023-04-18T03:09:01.203Z,6.90
2023-04-18T03:11:28.241Z,7.20
2023-04-18T03:13:56.249Z,6.70
2023-04-18T03:16:34.074Z,7.50
2023-04-18T03:19:02.543Z,7.33
2023-04-18T03:21:29.707Z,7.90
2023-04-18T03:23:57.029Z,7.37
2023-04-18T03:26:24.232Z,7.60
2023-04-18T03:28:51.851Z,6.90
2023-04-18T03:31:18.609Z,8.60
2023-04-18T03:33:46.035Z,8.57
2023-04-18T03:36:15.493Z,8.57
2023-04-18T03:38:42.186Z,8.33
2023-04-18T03:41:09.310Z,8.90
2023-04-18T03:43:37.584Z,8.40
2023-04-18T03:46:04.148Z,9.17
2023-04-18T03:48:35.610Z,6.90
2023-04-18T03:51:03.169Z,8.40
2023-04-18T03:53:31.057Z,7.33
2023-04-18T03:55:57.811Z,8.17
2023-04-18T03:58:36.970Z,8.20
2023-04-18T04:01:03.705Z,8.30
2023-04-18T04:03:30.510Z,8.57
2023-04-18T04:05:57.312Z,8.73
2023-04-18T04:08:24.358Z,9.97
2023-04-18T04:10:51.932Z,9.23
2023-04-18T04:13:18.746Z,8.20
2023-04-18T04:15:45.705Z,7.77
2023-04-18T04:18:12.197Z,8.47
2023-04-18T04:20:41.803Z,8.20
2023-04-18T04:23:15.143Z,8.50
2023-04-18T04:25:46.308Z,8.00
2023-04-18T04:28:32.864Z,8.60
2023-04-18T04:31:03.314Z,7.67
2023-04-18T04:33:33.191Z,8.57
2023-04-18T04:36:02.729Z,8.00
2023-04-18T04:38:32.506Z,8.17
2023-04-18T04:40:59.696Z,8.23
2023-04-18T04:43:28.938Z,7.97
2023-04-18T04:45:57.571Z,9.10
2023-04-18T04:48:25.279Z,8.10
2023-04-18T04:51:00.513Z,8.67
2023-04-18T04:53:30.353Z,8.70
2023-04-18T04:55:58.285Z,9.23
2023-04-18T04:58:25.453Z,8.00
2023-04-18T05:01:07.976Z,8.60
2023-04-18T05:03:36.482Z,9.33
2023-04-18T05:06:03.981Z,8.37
2023-04-18T05:08:30.432Z,9.80
2023-04-18T05:10:57.026Z,8.60
2023-04-18T05:13:23.517Z,9.43
2023-04-18T05:15:50.158Z,9.53
2023-04-18T05:18:16.613Z,8.77
2023-04-18T05:20:43.082Z,8.73
2023-04-18T05:23:09.602Z,8.60
2023-04-18T05:25:36.725Z,8.27
2023-04-18T05:28:04.854Z,8.13
2023-04-18T05:30:31.393Z,8.97
2023-04-18T05:32:57.877Z,8.90
2023-04-18T05:35:24.436Z,8.50
2023-04-18T05:37:51.900Z,8.20
2023-04-18T05:40:18.395Z,8.57
2023-04-18T05:42:44.836Z,8.17
2023-04-18T05:45:11.861Z,7.87
2023-04-18T05:47:38.338Z,8.63
2023-04-18T05:50:05.753Z,7.77
2023-04-18T05:52:32.437Z,8.27
2023-04-18T05:54:58.961Z,8.10
2023-04-18T05:57:25.452Z,7.87
2023-04-18T05:59:52.012Z,9.53
2023-04-18T06:02:18.649Z,9.77
2023-04-18T06:04:45.617Z,7.70
2023-04-18T06:07:12.212Z,7.43
2023-04-18T06:09:38.636Z,8.90
2023-04-18T06:12:05.305Z,8.07
2023-04-18T06:14:31.787Z,7.97
2023-04-18T06:16:58.467Z,7.63
2023-04-18T06:19:25.301Z,8.30
2023-04-18T06:21:52.870Z,8.13
2023-04-18T06:24:19.719Z,8.03
2023-04-18T06:26:46.490Z,7.30
2023-04-18T06:29:13.015Z,8.20
2023-04-18T06:31:39.521Z,8.07
2023-04-18T06:34:06.337Z,7.67
2023-04-18T06:36:32.904Z,7.03
2023-04-18T06:38:59.635Z,7.80
2023-04-18T06:41:26.104Z,7.57
2023-04-18T06:44:03.791Z,7.40
2023-04-18T06:46:31.580Z,7.33
2023-04-18T06:48:58.552Z,7.30
2023-04-18T06:51:25.078Z,6.47
2023-04-18T06:53:54.079Z,7.17
2023-04-18T06:56:20.717Z,7.37
2023-04-18T06:58:47.824Z,6.67
2023-04-18T07:01:14.400Z,6.57
2023-04-18T07:03:41.031Z,7.00
2023-04-18T07:06:08.858Z,6.43
2023-04-18T07:08:35.584Z,7.00
2023-04-18T07:11:02.339Z,6.80
2023-04-18T07:13:29.214Z,6.80
2023-04-18T07:15:56.151Z,6.70
2023-04-18T07:18:34.304Z,5.70
2023-04-18T07:21:07.187Z,6.53
2023-04-18T07:23:33.730Z,6.50
2023-04-18T07:26:02.467Z,6.80
2023-04-18T07:28:48.965Z,5.90
2023-04-18T07:31:16.493Z,6.60
2023-04-18T07:33:43.747Z,5.53
2023-04-18T07:36:10.377Z,6.60
2023-04-18T07:38:36.912Z,6.80
2023-04-18T07:41:03.694Z,6.03
2023-04-18T07:43:30.480Z,5.13
2023-04-18T07:45:57.005Z,5.50
2023-04-18T07:48:25.013Z,5.40
2023-04-18T07:50:51.814Z,5.23
2023-04-18T07:53:18.751Z,5.77
2023-04-18T07:55:45.666Z,5.10
2023-04-18T07:58:12.433Z,5.20
2023-04-18T08:00:39.730Z,5.70
2023-04-18T08:03:07.653Z,4.93
2023-04-18T08:05:34.403Z,4.97
2023-04-18T08:08:00.940Z,4.60
2023-04-18T08:10:27.714Z,5.30
2023-04-18T08:12:54.510Z,4.37
2023-04-18T08:15:21.020Z,3.80
2023-04-18T08:17:49.077Z,5.10
2023-04-18T08:20:15.714Z,3.80
2023-04-18T08:23:08.698Z,3.77
2023-04-18T08:25:37.067Z,3.50
2023-04-18T08:28:04.000Z,4.03
2023-04-18T08:30:31.080Z,4.10
2023-04-18T08:32:57.949Z,4.30
2023-04-18T08:35:24.451Z,3.80
2023-04-18T08:37:51.060Z,3.47
2023-04-18T08:40:18.558Z,3.30
2023-04-18T08:42:45.121Z,4.00
2023-04-18T08:45:14.914Z,4.00
2023-04-18T08:47:42.191Z,3.93
2023-04-18T08:50:09.611Z,4.10
2023-04-18T08:52:37.624Z,3.90
2023-04-18T08:55:04.438Z,3.93
2023-04-18T08:57:31.863Z,3.70
2023-04-18T09:00:00.600Z,4.40
2023-04-18T09:02:38.864Z,4.13
2023-04-18T09:05:10.474Z,3.87
2023-04-18T09:07:36.961Z,5.27
2023-04-18T09:10:03.595Z,4.57
2023-04-18T09:12:30.190Z,4.40
2023-04-18T09:15:09.352Z,4.07
2023-04-18T09:17:43.651Z,3.43
2023-04-18T09:20:10.899Z,3.80
2023-04-18T09:22:49.136Z,4.00
2023-04-18T09:25:34.797Z,3.97
2023-04-18T09:28:02.423Z,4.00
2023-04-18T09:30:39.589Z,4.33
2023-04-18T09:33:09.297Z,4.10
2023-04-18T09:35:36.829Z,5.00
2023-04-18T09:38:03.572Z,3.70
2023-04-18T09:40:31.314Z,4.53
2023-04-18T09:42:58.042Z,3.83
2023-04-18T09:45:25.436Z,4.13
2023-04-18T09:47:53.101Z,4.23
2023-04-18T09:50:20.886Z,3.60
2023-04-18T09:52:48.086Z,3.60
2023-04-18T09:55:16.214Z,3.07
2023-04-18T09:57:44.072Z,3.30
2023-04-18T10:00:14.085Z,2.87
2023-04-18T10:02:47.125Z,2.60
2023-04-18T10:05:14.808Z,3.17
2023-04-18T10:07:43.714Z,3.13
2023-04-18T10:10:10.449Z,2.97
2023-04-18T10:12:37.725Z,2.70
2023-04-18T10:15:04.985Z,2.40
2023-04-18T10:17:52.577Z,2.70
2023-04-18T10:20:28.000Z,2.50
2023-04-18T10:22:55.169Z,3.53
2023-04-18T10:25:33.865Z,3.77
2023-04-18T10:28:01.590Z,3.37
2023-04-18T10:30:40.253Z,3.67
2023-04-18T10:33:35.955Z,2.83
2023-04-18T10:36:08.694Z,4.83
2023-04-18T10:38:36.212Z,5.20
2023-04-18T10:41:13.999Z,5.30
2023-04-18T10:43:59.196Z,5.40
2023-04-18T10:46:32.577Z,4.17
2023-04-18T10:49:19.374Z,5.07
2023-04-18T10:51:46.496Z,5.70
2023-04-18T10:54:17.768Z,5.40
2023-04-18T10:56:54.063Z,4.43
2023-04-18T10:59:22.645Z,5.97
2023-04-18T11:01:49.934Z,6.57
2023-04-18T11:04:16.999Z,5.40
2023-04-18T11:07:01.706Z,5.83
2023-04-18T11:09:28.268Z,5.73
2023-04-18T11:12:05.081Z,5.80
2023-04-18T11:14:45.206Z,5.73
2023-04-18T11:17:17.849Z,5.40
2023-04-18T11:19:44.499Z,5.20
2023-04-18T11:22:11.495Z,5.57
2023-04-18T11:24:37.980Z,4.20
2023-04-18T11:27:04.489Z,5.70
2023-04-18T11:29:31.215Z,5.00
2023-04-18T11:31:58.820Z,5.20
2023-04-18T11:34:30.318Z,4.83
2023-04-18T11:36:57.317Z,4.93
2023-04-18T11:39:24.218Z,5.30
2023-04-18T11:41:51.249Z,4.87
2023-04-18T11:44:18.592Z,4.90
2023-04-18T11:46:47.602Z,5.37
2023-04-18T11:49:26.806Z,4.30
2023-04-18T11:51:53.647Z,4.47
2023-04-18T11:54:38.825Z,3.90
2023-04-18T11:57:06.384Z,4.30
2023-04-18T11:59:33.251Z,4.33
2023-04-18T12:02:15.337Z,4.10
2023-04-18T12:04:56.904Z,4.43
2023-04-18T12:07:40.018Z,3.77
2023-04-18T12:10:07.742Z,4.00
2023-04-18T12:12:34.584Z,3.47
2023-04-18T12:15:06.598Z,3.40
2023-04-18T12:17:33.114Z,3.93
2023-04-18T12:20:04.059Z,3.97
2023-04-18T12:22:37.369Z,4.37
2023-04-18T12:25:12.712Z,3.60
2023-04-18T12:27:49.250Z,4.17
2023-04-18T12:30:15.859Z,3.87
2023-04-18T12:32:44.837Z,4.17
2023-04-18T12:35:11.491Z,3.73
2023-04-18T12:37:38.068Z,3.77
2023-04-18T12:40:05.489Z,3.93
2023-04-18T12:42:33.351Z,3.70
2023-04-18T12:45:00.712Z,3.63
2023-04-18T12:47:27.212Z,4.07
2023-04-18T12:49:54.100Z,4.03
2023-04-18T12:52:20.662Z,3.10
2023-04-18T12:54:47.107Z,3.50
2023-04-18T12:57:13.518Z,3.60
2023-04-18T12:59:40.078Z,4.10
2023-04-18T13:02:06.677Z,4.70
2023-04-18T13:04:34.316Z,3.90
2023-04-18T13:07:01.078Z,4.67
2023-04-18T13:09:28.169Z,4.20
2023-04-18T13:11:54.675Z,3.60
2023-04-18T13:14:21.195Z,3.93
2023-04-18T13:16:48.615Z,4.20
2023-04-18T13:19:15.387Z,4.07
2023-04-18T13:21:41.998Z,4.53
2023-04-18T13:24:08.526Z,3.27
2023-04-18T13:26:36.055Z,4.00
2023-04-18T13:29:02.508Z,3.20
2023-04-18T13:31:29.193Z,3.40
2023-04-18T13:33:55.784Z,3.23
2023-04-18T13:36:22.233Z,3.40
2023-04-18T13:38:49.137Z,3.80
2023-04-18T13:41:15.688Z,3.30
2023-04-18T13:43:42.419Z,4.07
2023-04-18T13:46:09.101Z,3.40
2023-04-18T13:48:35.664Z,3.70
2023-04-18T13:51:02.923Z,3.77
2023-04-18T13:53:30.737Z,4.23
2023-04-18T13:55:57.668Z,3.90
2023-04-18T13:58:24.284Z,3.50
2023-04-18T14:00:50.859Z,3.20
2023-04-18T14:03:17.401Z,4.13
2023-04-18T14:05:43.949Z,4.30
2023-04-18T14:08:10.511Z,4.90
2023-04-18T14:10:37.217Z,3.87
2023-04-18T14:13:03.745Z,3.57
2023-04-18T14:15:30.645Z,3.57
2023-04-18T14:17:57.258Z,2.97
2023-04-18T14:20:23.828Z,3.23
2023-04-18T14:22:52.859Z,3.50
2023-04-18T14:25:19.644Z,3.53
2023-04-18T14:27:46.922Z,3.70
2023-04-18T14:30:14.268Z,3.60
2023-04-18T14:32:40.910Z,3.83
2023-04-18T14:35:07.933Z,4.10
2023-04-18T14:37:35.349Z,3.57
2023-04-18T14:40:02.354Z,3.73
2023-04-18T14:42:28.825Z,3.23
2023-04-18T14:44:55.385Z,3.50
2023-04-18T14:47:24.228Z,3.37
2023-04-18T14:49:51.186Z,4.60
2023-04-18T14:52:17.661Z,4.07
2023-04-18T14:54:44.868Z,4.17
2023-04-18T14:57:12.776Z,3.70
2023-04-18T14:59:39.224Z,3.90
2023-04-18T15:02:05.787Z,4.30
2023-04-18T15:04:32.776Z,3.93
2023-04-18T15:06:59.284Z,4.30
2023-04-18T15:09:26.119Z,3.80
2023-04-18T15:11:52.622Z,4.40
2023-04-18T15:14:19.242Z,3.80
2023-04-18T15:16:49.240Z,3.97
2023-04-18T15:19:15.911Z,5.00
2023-04-18T15:21:42.655Z,4.20
2023-04-18T15:24:09.122Z,5.03
2023-04-18T15:26:36.122Z,4.47
2023-04-18T15:29:03.749Z,4.50
2023-04-18T15:31:30.868Z,3.90
2023-04-18T15:33:57.474Z,4.50
2023-04-18T15:36:23.985Z,4.03
2023-04-18T15:38:50.496Z,4.30
2023-04-18T15:41:16.935Z,4.10
2023-04-18T15:43:45.288Z,4.77
2023-04-18T15:46:12.037Z,4.83
2023-04-18T15:48:38.620Z,4.60
2023-04-18T15:51:05.216Z,4.90
2023-04-18T15:53:32.550Z,4.93
2023-04-18T15:56:01.476Z,5.00
2023-04-18T15:58:30.148Z,5.10
2023-04-18T16:00:57.189Z,4.67
2023-04-18T16:03:24.675Z,5.50
2023-04-18T16:05:51.326Z,4.87
2023-04-18T16:08:17.826Z,5.40
2023-04-18T16:10:44.384Z,5.17
2023-04-18T16:13:10.815Z,5.30
2023-04-18T16:15:41.589Z,5.93
2023-04-18T16:18:08.616Z,5.57
2023-04-18T16:20:35.513Z,5.23
2023-04-18T16:23:02.377Z,6.70
2023-04-18T16:25:28.876Z,6.97
2023-04-18T16:27:55.400Z,5.80
2023-04-18T16:30:22.162Z,5.73
2023-04-18T16:32:48.733Z,5.17
2023-04-18T16:35:15.258Z,5.60
2023-04-18T16:37:41.685Z,7.13
2023-04-18T16:40:10.099Z,5.83
2023-04-18T16:42:36.606Z,6.43
2023-04-18T16:45:03.711Z,6.07
2023-04-18T16:47:32.725Z,5.77
2023-04-18T16:49:59.296Z,6.70
2023-04-18T16:52:25.783Z,5.93
2023-04-18T16:54:52.854Z,6.27
2023-04-18T16:57:19.365Z,6.53
2023-04-18T16:59:45.877Z,6.30
2023-04-18T17:02:12.456Z,6.90
2023-04-18T17:04:40.751Z,6.20
2023-04-18T17:07:07.324Z,5.70
2023-04-18T17:09:33.829Z,6.70
2023-04-18T17:12:01.599Z,6.40
2023-04-18T17:14:28.411Z,5.70
2023-04-18T17:16:54.866Z,5.93
2023-04-18T17:19:22.450Z,4.67
2023-04-18T17:21:50.836Z,6.37
2023-04-18T17:24:18.662Z,5.83
2023-04-18T17:26:45.176Z,5.87
2023-04-18T17:29:11.775Z,5.37
2023-04-18T17:31:38.705Z,5.70
2023-04-18T17:34:05.795Z,6.70
2023-04-18T17:36:32.678Z,6.00
2023-04-18T17:39:06.329Z,6.00
2023-04-18T17:41:38.045Z,6.70
2023-04-18T17:44:04.656Z,6.33
2023-04-18T17:46:31.833Z,5.63
2023-04-18T17:48:58.389Z,5.80
2023-04-18T17:51:26.156Z,5.23
2023-04-18T17:53:53.030Z,6.27
2023-04-18T17:56:19.475Z,6.73
2023-04-18T17:58:45.973Z,6.47
2023-04-18T18:01:15.825Z,5.60
2023-04-18T18:03:43.401Z,7.20
2023-04-18T18:06:14.916Z,6.50
2023-04-18T18:08:42.560Z,7.57
2023-04-18T18:11:09.813Z,8.07
2023-04-18T18:13:41.006Z,6.77
2023-04-18T18:16:07.762Z,7.37
2023-04-18T18:18:34.482Z,8.80
2023-04-18T18:21:01.369Z,7.10
2023-04-18T18:23:27.862Z,7.23
2023-04-18T18:25:54.540Z,7.40
2023-04-18T18:28:21.418Z,7.20
2023-04-18T18:30:47.982Z,5.97
2023-04-18T18:33:14.573Z,6.60
2023-04-18T18:35:41.014Z,6.60
2023-04-18T18:38:08.066Z,6.70
2023-04-18T18:40:34.576Z,5.87
2023-04-18T18:43:01.049Z,6.40
2023-04-18T18:45:27.581Z,6.40
2023-04-18T18:47:54.139Z,6.53
2023-04-18T18:50:20.688Z,6.07
2023-04-18T18:52:47.462Z,5.77
2023-04-18T18:55:14.173Z,6.30
2023-04-18T18:57:40.725Z,6.97
2023-04-18T19:00:13.642Z,8.40
2023-04-18T19:02:40.267Z,5.60
2023-04-18T19:05:06.972Z,7.00
2023-04-18T19:07:33.499Z,5.80
2023-04-18T19:10:01.600Z,5.73
2023-04-18T19:12:29.152Z,27.53
2023-04-18T19:14:55.694Z,10.87
2023-04-18T19:17:24.675Z,8.13
2023-04-18T19:19:52.549Z,6.37
2023-04-18T19:22:19.078Z,7.00
2023-04-18T19:24:45.699Z,6.50
2023-04-18T19:27:12.487Z,5.67
2023-04-18T19:29:39.406Z,10.10
2023-04-18T19:32:06.341Z,7.50
2023-04-18T19:34:32.887Z,5.53
2023-04-18T19:36:59.952Z,5.40
2023-04-18T19:39:26.594Z,5.03
2023-04-18T19:41:53.191Z,6.00
2023-04-18T19:44:19.649Z,4.90
2023-04-18T19:46:46.084Z,5.50
2023-04-18T19:49:13.082Z,6.10
2023-04-18T19:51:40.392Z,4.40
2023-04-18T19:54:07.371Z,5.30
2023-04-18T19:56:33.851Z,11.33
2023-04-18T19:59:01.648Z,11.33
2023-04-18T20:01:29.517Z,5.50
2023-04-18T20:03:58.501Z,5.83
2023-04-18T20:06:26.683Z,4.97
2023-04-18T20:08:55.831Z,5.03
2023-04-18T20:11:22.295Z,4.60
2023-04-18T20:13:49.152Z,4.70
2023-04-18T20:16:16.813Z,4.50
2023-04-18T20:18:47.235Z,4.67
2023-04-18T20:21:13.830Z,3.50
2023-04-18T20:23:42.012Z,3.27
2023-04-18T20:26:11.875Z,3.33
2023-04-18T20:28:38.370Z,3.10
2023-04-18T20:31:05.680Z,4.27
2023-04-18T20:33:33.100Z,3.57
2023-04-18T20:35:59.925Z,3.27
2023-04-18T20:38:29.294Z,3.63
2023-04-18T20:40:57.903Z,3.57
2023-04-18T20:43:24.735Z,3.13
2023-04-18T20:45:51.527Z,3.63
2023-04-18T20:48:18.544Z,3.27
2023-04-18T20:50:50.753Z,3.43
2023-04-18T20:53:21.039Z,3.80
2023-04-18T20:55:48.019Z,3.10
2023-04-18T20:58:14.575Z,3.07
2023-04-18T21:00:44.822Z,3.30
2023-04-18T21:03:15.516Z,3.97
2023-04-18T21:05:43.002Z,3.40
2023-04-18T21:08:10.789Z,3.83
2023-04-18T21:10:37.334Z,3.00
2023-04-18T21:13:03.765Z,2.77
2023-04-18T21:15:30.219Z,3.50
2023-04-18T21:17:56.719Z,4.03
2023-04-18T21:20:23.214Z,3.20
2023-04-18T21:22:49.645Z,3.57
2023-04-18T21:25:16.493Z,3.20
2023-04-18T21:27:42.947Z,3.40
2023-04-18T21:30:09.464Z,3.03
2023-04-18T21:32:36.284Z,3.43
2023-04-18T21:35:02.879Z,2.87
2023-04-18T21:37:30.162Z,3.33
2023-04-18T21:39:56.655Z,3.00
2023-04-18T21:42:23.186Z,3.20
2023-04-18T21:44:49.699Z,3.30
2023-04-18T21:47:16.186Z,3.27
2023-04-18T21:49:42.866Z,3.73
2023-04-18T21:52:09.552Z,4.00
2023-04-18T21:54:36.075Z,3.37
2023-04-18T21:57:02.736Z,3.13
2023-04-18T21:59:29.748Z,3.20
2023-04-18T22:01:56.319Z,3.13
2023-04-18T22:04:26.142Z,3.50
2023-04-18T22:06:56.757Z,4.10
2023-04-18T22:09:23.425Z,3.53
2023-04-18T22:11:52.105Z,3.40
2023-04-18T22:14:19.955Z,3.03
2023-04-18T22:16:46.991Z,3.63
2023-04-18T22:19:14.110Z,3.70
2023-04-18T22:21:40.678Z,3.13
2023-04-18T22:24:07.502Z,3.10
2023-04-18T22:26:34.048Z,3.70
2023-04-18T22:29:00.538Z,3.40
2023-04-18T22:31:27.243Z,3.30
2023-04-18T22:33:53.798Z,3.13
2023-04-18T22:36:20.261Z,3.70
2023-04-18T22:38:46.698Z,3.70
2023-04-18T22:41:13.301Z,3.63
2023-04-18T22:43:39.777Z,4.00
2023-04-18T22:46:06.326Z,3.53
2023-04-18T22:48:35.009Z,3.83
2023-04-18T22:51:04.560Z,3.40
2023-04-18T22:53:31.027Z,3.43
2023-04-18T22:55:57.583Z,2.97
2023-04-18T22:58:24.062Z,2.80
2023-04-18T23:00:50.555Z,3.37
2023-04-18T23:03:17.135Z,3.60
2023-04-18T23:05:43.980Z,3.10
2023-04-18T23:08:11.860Z,3.30
2023-04-18T23:10:38.593Z,4.07
2023-04-18T23:13:05.127Z,2.77
2023-04-18T23:15:31.666Z,3.20
2023-04-18T23:17:58.368Z,3.03
2023-04-18T23:20:25.091Z,3.70
2023-04-18T23:22:51.864Z,2.93
2023-04-18T23:25:19.725Z,3.13
2023-04-18T23:27:46.835Z,3.00
2023-04-18T23:30:13.428Z,2.50
2023-04-18T23:32:39.987Z,3.00
2023-04-18T23:35:06.841Z,2.50
2023-04-18T23:37:33.298Z,3.07
2023-04-18T23:40:00.328Z,3.33
2023-04-18T23:42:27.277Z,2.70
2023-04-18T23:44:54.500Z,2.30
2023-04-18T23:47:22.316Z,2.43
2023-04-18T23:49:48.915Z,2.60
2023-04-18T23:52:15.424Z,2.10
2023-04-18T23:54:42.488Z,2.07
2023-04-18T23:57:08.980Z,2.23
2023-04-18T23:59:35.470Z,3.37
